Time;durP1;ratioP1;P1;durP2;ratioP2;P2;SDS_P1;SDS_P2;PMS_P1;PMS_P2;Temp;Humidity;BMP_temperature;BMP_pressure;BME280_temperature;BME280_humidity;BME280_pressure;Samples;Min_cycle;Max_cycle;Signal;HPM_P1;HPM_P2
2023/12/31 00:00:39;;;;;;;4.80;1.90;;;7.80;99.90;;;;;;5106334;28;20201;-66
2023/12/31 00:03:07;;;;;;;2.37;1.57;;;7.80;99.90;;;;;;5109739;28;20245;-67
2023/12/31 00:05:35;;;;;;;6.43;2.20;;;7.80;99.90;;;;;;5112375;28;20253;-66
2023/12/31 00:08:02;;;;;;;4.97;2.00;;;7.80;99.90;;;;;;5110316;28;20198;-66
2023/12/31 00:10:29;;;;;;;5.73;2.10;;;7.80;99.90;;;;;;5119064;28;20184;-67
2023/12/31 00:12:56;;;;;;;3.97;1.73;;;7.80;99.90;;;;;;5111611;28;20245;-67
2023/12/31 00:15:23;;;;;;;3.33;1.53;;;7.80;99.90;;;;;;5110594;28;20225;-67
2023/12/31 00:17:50;;;;;;;8.20;2.13;;;7.80;99.90;;;;;;5109360;28;20226;-67
2023/12/31 00:20:18;;;;;;;3.87;1.77;;;7.80;99.90;;;;;;5108875;28;20222;-65
2023/12/31 00:22:45;;;;;;;3.03;1.67;;;7.80;99.90;;;;;;5109416;28;20279;-66
2023/12/31 00:25:13;;;;;;;5.63;1.33;;;7.80;99.90;;;;;;5116858;28;20747;-67
2023/12/31 00:27:41;;;;;;;8.20;2.70;;;7.80;99.90;;;;;;5110578;28;20290;-66
2023/12/31 00:30:09;;;;;;;4.57;1.97;;;7.80;99.90;;;;;;5120010;27;20184;-66
2023/12/31 00:32:36;;;;;;;4.10;1.83;;;7.80;99.90;;;;;;5113221;28;20225;-66
2023/12/31 00:35:03;;;;;;;5.43;2.00;;;7.80;99.90;;;;;;5119786;27;20215;-66
2023/12/31 00:37:31;;;;;;;4.10;2.00;;;7.80;99.90;;;;;;5112621;28;20705;-66
2023/12/31 00:39:58;;;;;;;2.27;1.60;;;7.80;99.90;;;;;;5116592;27;20204;-66
2023/12/31 00:42:25;;;;;;;7.63;2.20;;;7.80;99.90;;;;;;5112958;28;20203;-66
2023/12/31 00:44:52;;;;;;;5.40;2.00;;;7.80;99.90;;;;;;5113853;28;20558;-66
2023/12/31 00:47:21;;;;;;;3.80;1.57;;;7.70;99.90;;;;;;5113223;28;20224;-66
2023/12/31 00:49:48;;;;;;;1.70;1.40;;;7.70;99.90;;;;;;5111720;28;20192;-67
2023/12/31 00:52:15;;;;;;;2.00;1.40;;;7.70;99.90;;;;;;5108687;28;20597;-66
2023/12/31 00:54:44;;;;;;;2.47;1.33;;;7.70;99.90;;;;;;5112697;28;20203;-66
2023/12/31 00:57:11;;;;;;;2.87;1.50;;;7.70;99.90;;;;;;5112626;28;20207;-66
2023/12/31 00:59:38;;;;;;;4.37;1.43;;;7.70;99.90;;;;;;5111810;28;20240;-67
2023/12/31 01:02:05;;;;;;;1.87;1.20;;;7.70;99.90;;;;;;5113931;28;20282;-66
2023/12/31 01:04:32;;;;;;;1.10;1.00;;;7.80;99.90;;;;;;5112501;28;20249;-66
2023/12/31 01:06:59;;;;;;;2.73;1.40;;;7.80;99.90;;;;;;5113909;27;20292;-66
2023/12/31 01:09:26;;;;;;;2.13;1.40;;;7.80;99.90;;;;;;5111571;28;20629;-66
2023/12/31 01:11:54;;;;;;;2.97;1.50;;;7.80;99.90;;;;;;5112882;27;20630;-66
2023/12/31 01:14:22;;;;;;;2.13;1.40;;;7.80;99.90;;;;;;5113008;28;20670;-66
2023/12/31 01:16:49;;;;;;;4.87;2.10;;;7.80;99.90;;;;;;5127023;27;20197;-66
2023/12/31 01:19:17;;;;;;;4.50;2.20;;;7.90;99.90;;;;;;5113735;27;20212;-66
2023/12/31 01:21:44;;;;;;;2.93;1.53;;;7.80;99.90;;;;;;5122131;27;20654;-67
2023/12/31 01:24:11;;;;;;;1.97;1.40;;;7.80;99.90;;;;;;5120028;27;20191;-66
2023/12/31 01:26:38;;;;;;;3.93;1.23;;;7.80;99.90;;;;;;5116849;27;20684;-66
2023/12/31 01:29:06;;;;;;;3.40;1.60;;;7.70;99.90;;;;;;5114987;27;20520;-66
2023/12/31 01:31:35;;;;;;;1.70;1.60;;;7.70;99.90;;;;;;5117129;27;20207;-66
2023/12/31 01:34:02;;;;;;;3.07;2.10;;;7.70;99.90;;;;;;5117468;27;20197;-66
2023/12/31 01:36:29;;;;;;;2.33;1.63;;;7.70;99.90;;;;;;5123013;27;20242;-67
2023/12/31 01:38:56;;;;;;;3.23;1.50;;;7.70;99.90;;;;;;5113544;27;20310;-66
2023/12/31 01:41:23;;;;;;;6.93;2.00;;;7.70;99.90;;;;;;5114429;27;20251;-67
2023/12/31 01:44:01;;;;;;;3.23;1.73;;;7.70;99.90;;;;;;5112755;27;20663;-66
2023/12/31 01:46:30;;;;;;;4.27;1.80;;;7.70;99.90;;;;;;5112672;28;20282;-66
2023/12/31 01:48:59;;;;;;;4.57;1.77;;;7.70;99.90;;;;;;5112412;28;20238;-66
2023/12/31 01:51:28;;;;;;;5.93;2.30;;;7.70;99.90;;;;;;5110048;28;20213;-66
2023/12/31 01:53:56;;;;;;;5.67;1.70;;;7.70;99.90;;;;;;5114671;27;20196;-65
2023/12/31 01:56:23;;;;;;;4.30;1.90;;;7.70;99.90;;;;;;5108840;28;20193;-66
2023/12/31 01:58:51;;;;;;;1.97;1.60;;;7.60;99.90;;;;;;5111305;28;20291;-66
2023/12/31 02:01:21;;;;;;;3.30;2.13;;;7.60;99.90;;;;;;5125907;27;20213;-66
2023/12/31 02:03:49;;;;;;;3.10;1.70;;;7.60;99.90;;;;;;5107970;28;20202;-66
2023/12/31 02:06:16;;;;;;;4.53;1.67;;;7.60;99.90;;;;;;5112865;27;20675;-66
2023/12/31 02:08:43;;;;;;;4.63;1.57;;;7.60;99.90;;;;;;5117133;27;20196;-67
2023/12/31 02:11:11;;;;;;;3.53;1.60;;;7.60;99.90;;;;;;5111755;28;20265;-67
2023/12/31 02:13:38;;;;;;;3.77;1.40;;;7.60;99.90;;;;;;5110833;28;20299;-67
2023/12/31 02:16:14;;;;;;;1.87;1.50;;;7.60;99.90;;;;;;5110556;28;20201;-66
2023/12/31 02:18:41;;;;;;;4.00;1.30;;;7.60;99.90;;;;;;5103905;28;20196;-66
2023/12/31 02:21:11;;;;;;;2.07;1.40;;;7.60;99.90;;;;;;5111689;28;20245;-66
2023/12/31 02:23:39;;;;;;;1.73;1.60;;;7.60;99.90;;;;;;5103105;28;20204;-66
2023/12/31 02:26:09;;;;;;;2.70;1.40;;;7.50;99.90;;;;;;5110113;28;20671;-66
2023/12/31 02:28:37;;;;;;;5.17;1.90;;;7.50;99.90;;;;;;5105999;28;20240;-65
2023/12/31 02:31:05;;;;;;;1.90;1.70;;;7.50;99.90;;;;;;5110390;28;20204;-67
2023/12/31 02:33:32;;;;;;;1.90;1.43;;;7.50;99.90;;;;;;5103903;28;20203;-66
2023/12/31 02:35:59;;;;;;;3.03;1.53;;;7.50;99.90;;;;;;5111250;28;20202;-65
2023/12/31 02:38:26;;;;;;;3.83;1.50;;;7.50;99.90;;;;;;5111288;28;20676;-65
2023/12/31 02:40:53;;;;;;;7.13;1.90;;;7.50;99.90;;;;;;5111733;28;20208;-66
2023/12/31 02:43:22;;;;;;;5.03;1.50;;;7.50;99.90;;;;;;5110370;28;20206;-67
2023/12/31 02:45:49;;;;;;;1.23;1.13;;;7.50;99.90;;;;;;5111786;28;20617;-66
2023/12/31 02:48:16;;;;;;;3.27;1.40;;;7.50;99.90;;;;;;5112417;27;20195;-66
2023/12/31 02:50:43;;;;;;;4.33;1.40;;;7.50;99.90;;;;;;5110305;28;20605;-67
2023/12/31 02:53:10;;;;;;;3.30;1.63;;;7.40;99.90;;;;;;5107465;28;20226;-67
2023/12/31 02:55:37;;;;;;;4.67;1.47;;;7.50;99.90;;;;;;5101688;28;20219;-67
2023/12/31 02:58:05;;;;;;;1.47;1.37;;;7.40;99.90;;;;;;5111629;28;20227;-66
2023/12/31 03:00:33;;;;;;;2.40;1.30;;;7.40;99.90;;;;;;5111378;28;20208;-66
2023/12/31 03:03:00;;;;;;;2.10;1.20;;;7.50;99.90;;;;;;5110360;28;20654;-65
2023/12/31 03:05:27;;;;;;;3.80;1.20;;;7.40;99.90;;;;;;5117258;27;20260;-66
2023/12/31 03:07:54;;;;;;;1.87;1.30;;;7.50;99.90;;;;;;5109655;28;20664;-66
2023/12/31 03:10:22;;;;;;;2.53;1.10;;;7.40;99.90;;;;;;5111573;28;20260;-66
2023/12/31 03:12:49;;;;;;;3.77;1.60;;;7.40;99.90;;;;;;5109262;28;20569;-66
2023/12/31 03:15:18;;;;;;;3.50;1.40;;;7.40;99.90;;;;;;5118408;27;20202;-66
2023/12/31 03:17:50;;;;;;;2.27;1.30;;;7.40;99.90;;;;;;5109955;28;20288;-67
2023/12/31 03:20:18;;;;;;;2.53;1.60;;;7.40;99.90;;;;;;5110789;28;20286;-66
2023/12/31 03:22:46;;;;;;;2.27;1.57;;;7.40;99.90;;;;;;5111907;27;20234;-66
2023/12/31 03:25:13;;;;;;;1.83;1.37;;;7.40;99.90;;;;;;5116085;27;20275;-66
2023/12/31 03:27:40;;;;;;;2.30;1.33;;;7.50;99.90;;;;;;5110595;28;20285;-66
2023/12/31 03:30:08;;;;;;;5.17;1.90;;;7.50;99.90;;;;;;5109044;28;20635;-66
2023/12/31 03:32:35;;;;;;;1.67;1.40;;;7.50;99.90;;;;;;5108770;27;20659;-66
2023/12/31 03:35:04;;;;;;;1.87;1.30;;;7.40;99.90;;;;;;5115217;28;20257;-66
2023/12/31 03:37:31;;;;;;;3.33;1.67;;;7.30;99.90;;;;;;5112559;27;20193;-67
2023/12/31 03:39:58;;;;;;;5.93;2.00;;;7.30;99.90;;;;;;5114137;27;20276;-67
2023/12/31 03:42:25;;;;;;;6.27;2.33;;;7.30;99.90;;;;;;5110971;28;20727;-67
2023/12/31 03:44:52;;;;;;;2.13;1.87;;;7.20;99.90;;;;;;5109034;28;20203;-67
2023/12/31 03:47:20;;;;;;;4.37;2.30;;;7.20;99.90;;;;;;5100574;28;20204;-67
2023/12/31 03:49:47;;;;;;;4.57;1.90;;;7.20;99.90;;;;;;5109810;28;20715;-67
2023/12/31 03:52:15;;;;;;;3.60;1.50;;;7.20;99.90;;;;;;5106820;28;20204;-67
2023/12/31 03:54:42;;;;;;;5.67;1.80;;;7.10;99.90;;;;;;5108934;28;20271;-67
2023/12/31 03:57:09;;;;;;;2.60;1.70;;;7.10;99.90;;;;;;5110737;28;20195;-67
2023/12/31 03:59:35;;;;;;;5.33;1.83;;;7.20;99.90;;;;;;5106437;28;20250;-67
2023/12/31 04:02:03;;;;;;;2.70;1.67;;;7.10;99.90;;;;;;5112335;28;20248;-67
2023/12/31 04:04:30;;;;;;;2.30;1.47;;;7.10;99.90;;;;;;5110564;28;20845;-67
2023/12/31 04:06:58;;;;;;;3.80;1.47;;;7.10;99.90;;;;;;5111260;28;20206;-66
2023/12/31 04:09:26;;;;;;;2.40;1.20;;;7.20;99.90;;;;;;5115957;27;20276;-66
2023/12/31 04:11:53;;;;;;;2.80;1.30;;;7.20;99.90;;;;;;5115502;28;20241;-66
2023/12/31 04:14:20;;;;;;;2.50;1.30;;;7.20;99.90;;;;;;5115212;27;20192;-66
2023/12/31 04:16:47;;;;;;;1.90;1.10;;;7.20;99.90;;;;;;5115539;28;20226;-66
2023/12/31 04:19:15;;;;;;;1.63;1.10;;;7.20;99.90;;;;;;5112977;27;20223;-66
2023/12/31 04:21:42;;;;;;;6.40;0.93;;;7.30;99.90;;;;;;5114825;28;20212;-66
2023/12/31 04:24:09;;;;;;;3.87;1.07;;;7.30;99.90;;;;;;5105515;27;20200;-66
2023/12/31 04:26:38;;;;;;;1.23;1.00;;;7.30;99.90;;;;;;5108085;27;20332;-66
2023/12/31 04:29:05;;;;;;;2.10;1.10;;;7.30;99.90;;;;;;5112744;28;20755;-66
2023/12/31 04:31:33;;;;;;;4.37;1.30;;;7.30;99.90;;;;;;5121629;27;20581;-66
2023/12/31 04:34:00;;;;;;;2.97;1.30;;;7.30;99.90;;;;;;5113762;27;20248;-66
2023/12/31 04:36:27;;;;;;;1.73;1.00;;;7.30;99.90;;;;;;5112186;28;20419;-67
2023/12/31 04:38:54;;;;;;;3.70;1.30;;;7.20;99.90;;;;;;5111696;28;20254;-67
2023/12/31 04:41:22;;;;;;;2.67;1.30;;;7.20;99.90;;;;;;5114174;28;20240;-67
2023/12/31 04:43:50;;;;;;;2.87;1.47;;;7.20;99.90;;;;;;5113864;28;20208;-66
2023/12/31 04:46:20;;;;;;;2.43;1.17;;;7.30;99.90;;;;;;5113697;28;20571;-66
2023/12/31 04:48:47;;;;;;;4.10;1.30;;;7.20;99.90;;;;;;5113137;28;20288;-66
2023/12/31 04:51:24;;;;;;;4.03;1.37;;;7.20;99.90;;;;;;5113646;28;20265;-67
2023/12/31 04:53:52;;;;;;;2.37;1.30;;;7.20;99.90;;;;;;5100759;28;20219;-66
2023/12/31 04:56:20;;;;;;;4.70;1.20;;;7.30;99.90;;;;;;5116714;27;20195;-67
2023/12/31 04:58:49;;;;;;;3.23;1.30;;;7.30;99.90;;;;;;5113899;28;20196;-66
2023/12/31 05:01:18;;;;;;;2.70;1.20;;;7.30;99.90;;;;;;5110126;27;20402;-66
2023/12/31 05:03:48;;;;;;;2.27;1.17;;;7.30;99.90;;;;;;5106403;27;20204;-66
2023/12/31 05:06:16;;;;;;;3.33;0.80;;;7.30;99.90;;;;;;5111791;28;20239;-66
2023/12/31 05:08:44;;;;;;;2.90;1.37;;;7.30;99.90;;;;;;5113296;28;20253;-66
2023/12/31 05:11:11;;;;;;;3.67;1.00;;;7.30;99.90;;;;;;5112122;28;20824;-66
2023/12/31 05:13:39;;;;;;;6.43;1.13;;;7.30;99.90;;;;;;5112691;28;20196;-66
2023/12/31 05:16:07;;;;;;;4.57;1.10;;;7.30;99.90;;;;;;5112918;28;20619;-66
2023/12/31 05:18:35;;;;;;;1.90;1.10;;;7.30;99.90;;;;;;5112743;28;20197;-66
2023/12/31 05:21:03;;;;;;;3.87;1.27;;;7.40;99.90;;;;;;5111657;28;20203;-66
2023/12/31 05:23:31;;;;;;;1.90;0.90;;;7.40;99.90;;;;;;5111055;28;20223;-66
2023/12/31 05:25:58;;;;;;;1.50;1.00;;;7.40;99.90;;;;;;5104454;28;20206;-66
2023/12/31 05:28:25;;;;;;;4.63;1.30;;;7.40;99.90;;;;;;5113433;28;20761;-66
2023/12/31 05:30:52;;;;;;;3.23;1.60;;;7.30;99.90;;;;;;5112458;28;20223;-67
2023/12/31 05:33:19;;;;;;;1.97;1.27;;;7.40;99.90;;;;;;5112526;28;20642;-67
2023/12/31 05:35:48;;;;;;;2.13;1.37;;;7.40;99.90;;;;;;5112513;28;20672;-67
2023/12/31 05:38:16;;;;;;;5.20;2.03;;;7.30;99.90;;;;;;5112731;28;20718;-66
2023/12/31 05:40:43;;;;;;;4.90;2.27;;;7.30;99.90;;;;;;5110736;28;20770;-66
2023/12/31 05:43:11;;;;;;;7.77;2.87;;;7.20;99.90;;;;;;5124265;27;20678;-66
2023/12/31 05:45:38;;;;;;;10.03;2.97;;;7.10;99.90;;;;;;5119140;27;20202;-67
2023/12/31 05:48:06;;;;;;;6.00;2.33;;;7.10;99.90;;;;;;5115587;27;20243;-67
2023/12/31 05:50:33;;;;;;;3.63;2.23;;;7.00;99.90;;;;;;5110690;28;20234;-67
2023/12/31 05:53:01;;;;;;;4.80;2.17;;;6.90;99.90;;;;;;5111618;27;20278;-67
2023/12/31 05:55:28;;;;;;;4.13;2.13;;;6.90;99.90;;;;;;5102799;27;20231;-66
2023/12/31 05:57:56;;;;;;;5.90;1.87;;;6.90;99.90;;;;;;5094287;28;20228;-66
2023/12/31 06:00:26;;;;;;;3.37;1.73;;;6.90;99.90;;;;;;5110174;27;20203;-66
2023/12/31 06:02:53;;;;;;;4.87;2.00;;;6.90;99.90;;;;;;5110236;28;20196;-66
2023/12/31 06:05:20;;;;;;;4.43;2.23;;;6.80;99.90;;;;;;5112063;28;20301;-67
2023/12/31 06:07:47;;;;;;;4.40;2.10;;;6.80;99.90;;;;;;5114568;27;20291;-67
2023/12/31 06:10:15;;;;;;;3.07;1.60;;;6.90;99.90;;;;;;5110353;28;20214;-67
2023/12/31 06:12:42;;;;;;;2.87;1.90;;;6.90;99.90;;;;;;5110906;28;20291;-66
2023/12/31 06:15:11;;;;;;;3.70;1.93;;;6.80;99.90;;;;;;5110478;28;20222;-67
2023/12/31 06:17:38;;;;;;;4.20;2.30;;;6.80;99.90;;;;;;5105850;28;20272;-67
2023/12/31 06:20:07;;;;;;;4.80;2.70;;;6.80;99.90;;;;;;5112824;27;20200;-67
2023/12/31 06:22:35;;;;;;;4.93;3.03;;;6.80;99.90;;;;;;5112035;27;20197;-67
2023/12/31 06:25:02;;;;;;;4.93;2.67;;;7.50;99.90;;;;;;5112106;27;20249;-66
2023/12/31 06:27:31;;;;;;;3.03;2.20;;;6.80;99.90;;;;;;5123000;27;20225;-66
2023/12/31 06:29:58;;;;;;;7.10;2.77;;;6.80;99.90;;;;;;5111332;28;20188;-65
2023/12/31 06:32:25;;;;;;;7.33;3.10;;;6.70;99.90;;;;;;5121036;27;20183;-66
2023/12/31 06:34:52;;;;;;;8.30;2.87;;;6.80;99.90;;;;;;5110716;28;20256;-66
2023/12/31 06:37:20;;;;;;;7.23;2.70;;;6.80;99.90;;;;;;5112235;28;20242;-67
2023/12/31 06:39:47;;;;;;;8.90;2.97;;;7.40;99.90;;;;;;5111308;28;20361;-67
2023/12/31 06:42:14;;;;;;;5.37;2.47;;;6.90;99.90;;;;;;5118993;27;20226;-67
2023/12/31 06:44:42;;;;;;;3.80;2.37;;;6.80;99.90;;;;;;5111285;28;20243;-67
2023/12/31 06:47:10;;;;;;;3.10;2.07;;;6.80;99.90;;;;;;5112129;28;20192;-66
2023/12/31 06:49:37;;;;;;;5.43;1.80;;;6.80;99.90;;;;;;5116450;27;20202;-67
2023/12/31 06:52:04;;;;;;;4.57;2.20;;;6.80;99.90;;;;;;5117717;27;20198;-66
2023/12/31 06:54:31;;;;;;;2.47;2.10;;;6.80;99.90;;;;;;5102590;28;20226;-66
2023/12/31 06:56:58;;;;;;;2.63;1.60;;;6.80;99.90;;;;;;5112892;27;20219;-66
2023/12/31 06:59:25;;;;;;;4.53;1.80;;;6.80;99.90;;;;;;5108775;27;20316;-67
2023/12/31 07:01:54;;;;;;;6.80;3.60;;;6.80;99.90;;;;;;5108938;28;20211;-66
2023/12/31 07:04:21;;;;;;;18.43;6.33;;;6.80;99.90;;;;;;5115628;27;20213;-67
2023/12/31 07:06:48;;;;;;;13.07;7.10;;;6.70;99.90;;;;;;5107752;27;20194;-66
2023/12/31 07:09:15;;;;;;;13.80;7.27;;;6.70;99.90;;;;;;5108546;27;20678;-66
2023/12/31 07:11:42;;;;;;;11.73;5.73;;;6.60;99.90;;;;;;5105237;28;20589;-67
2023/12/31 07:14:09;;;;;;;11.87;6.30;;;6.60;99.90;;;;;;5108426;28;20734;-66
2023/12/31 07:16:37;;;;;;;13.83;6.10;;;6.50;99.90;;;;;;5113136;27;20219;-66
2023/12/31 07:19:05;;;;;;;10.70;5.57;;;6.50;99.90;;;;;;5109604;28;20192;-66
2023/12/31 07:21:32;;;;;;;11.33;6.00;;;6.50;99.90;;;;;;5110705;28;20231;-67
2023/12/31 07:23:59;;;;;;;10.20;5.50;;;6.40;99.90;;;;;;5114646;27;20223;-66
2023/12/31 07:26:27;;;;;;;7.20;4.57;;;6.40;99.90;;;;;;5110845;28;20206;-65
2023/12/31 07:28:54;;;;;;;13.27;4.90;;;6.40;99.90;;;;;;5110780;28;20251;-66
2023/12/31 07:31:21;;;;;;;9.10;4.63;;;6.40;99.90;;;;;;5109928;28;20195;-66
2023/12/31 07:33:50;;;;;;;6.33;3.77;;;6.40;99.90;;;;;;5113869;27;20241;-66
2023/12/31 07:36:18;;;;;;;6.63;3.70;;;6.30;99.90;;;;;;5113016;28;20195;-66
2023/12/31 07:38:45;;;;;;;9.37;4.07;;;6.30;99.90;;;;;;5110863;28;20244;-67
2023/12/31 07:41:13;;;;;;;5.47;3.70;;;6.30;99.90;;;;;;5110053;28;20202;-67
2023/12/31 07:43:40;;;;;;;10.53;5.30;;;6.30;99.90;;;;;;5109625;28;20199;-67
2023/12/31 07:46:08;;;;;;;7.27;4.30;;;6.30;99.90;;;;;;5116149;28;20596;-67
2023/12/31 07:48:35;;;;;;;4.60;3.30;;;6.30;99.90;;;;;;5110519;28;20383;-66
2023/12/31 07:51:03;;;;;;;7.33;3.93;;;6.30;99.90;;;;;;5110065;28;20219;-67
2023/12/31 07:53:32;;;;;;;7.20;4.03;;;6.30;99.90;;;;;;5106605;28;20192;-66
2023/12/31 07:55:59;;;;;;;7.73;3.97;;;6.30;99.90;;;;;;5106897;28;20198;-66
2023/12/31 07:58:27;;;;;;;5.60;3.70;;;6.40;99.90;;;;;;5110566;28;20605;-66
2023/12/31 08:00:55;;;;;;;7.80;3.70;;;6.40;99.90;;;;;;5110092;28;20234;-66
2023/12/31 08:03:22;;;;;;;7.83;4.57;;;6.40;99.90;;;;;;5108779;28;20558;-66
2023/12/31 08:05:50;;;;;;;6.73;4.77;;;6.40;99.90;;;;;;5100367;28;20196;-66
2023/12/31 08:08:17;;;;;;;9.83;5.10;;;6.40;99.90;;;;;;5110056;28;20252;-67
2023/12/31 08:10:46;;;;;;;8.33;4.63;;;6.40;99.90;;;;;;5110896;28;20278;-65
2023/12/31 08:13:13;;;;;;;6.30;4.00;;;6.40;99.90;;;;;;5110613;28;20279;-67
2023/12/31 08:15:40;;;;;;;8.93;4.40;;;6.50;99.90;;;;;;5113312;28;20205;-67
2023/12/31 08:18:07;;;;;;;6.93;4.47;;;6.40;99.90;;;;;;5117302;28;20203;-66
2023/12/31 08:20:34;;;;;;;7.23;3.90;;;6.40;99.90;;;;;;5110269;28;20207;-66
2023/12/31 08:23:02;;;;;;;4.57;3.57;;;6.40;99.90;;;;;;5109907;28;20247;-66
2023/12/31 08:25:29;;;;;;;6.27;3.70;;;6.50;99.90;;;;;;5114825;28;20293;-67
2023/12/31 08:27:59;;;;;;;8.77;4.93;;;6.50;99.90;;;;;;5110193;28;20235;-67
2023/12/31 08:30:26;;;;;;;7.67;4.77;;;6.50;99.90;;;;;;5107909;28;20238;-66
2023/12/31 08:32:53;;;;;;;11.53;5.90;;;6.50;99.90;;;;;;5109427;28;20216;-66
2023/12/31 08:35:20;;;;;;;8.07;4.57;;;6.50;99.90;;;;;;5116959;28;20672;-66
2023/12/31 08:37:48;;;;;;;8.53;4.73;;;6.40;99.90;;;;;;5108306;28;20199;-66
2023/12/31 08:40:15;;;;;;;8.47;4.90;;;6.40;99.90;;;;;;5109664;28;20240;-66
2023/12/31 08:42:44;;;;;;;6.53;4.83;;;6.40;99.90;;;;;;5115123;28;20299;-66
2023/12/31 08:45:13;;;;;;;8.03;4.70;;;6.40;99.90;;;;;;5108829;28;20608;-67
2023/12/31 08:47:42;;;;;;;6.30;4.07;;;6.40;99.90;;;;;;5109557;28;20190;-66
2023/12/31 08:50:11;;;;;;;6.93;4.20;;;6.40;99.90;;;;;;5114145;28;20192;-66
2023/12/31 08:52:41;;;;;;;7.47;4.50;;;6.50;99.90;;;;;;5112536;28;20212;-66
2023/12/31 08:55:09;;;;;;;8.07;5.40;;;6.60;99.90;;;;;;5112367;28;20719;-66
2023/12/31 08:57:36;;;;;;;8.87;5.20;;;6.60;99.90;;;;;;5113709;28;20188;-66
2023/12/31 09:00:03;;;;;;;8.50;4.87;;;6.60;99.90;;;;;;5128653;27;20536;-66
2023/12/31 09:02:31;;;;;;;10.53;5.67;;;6.60;99.90;;;;;;5112908;28;20243;-66
2023/12/31 09:04:59;;;;;;;6.80;4.70;;;6.60;99.90;;;;;;5110459;27;20212;-66
2023/12/31 09:07:26;;;;;;;7.77;5.10;;;6.60;99.90;;;;;;5123995;27;20745;-66
2023/12/31 09:09:53;;;;;;;7.07;4.63;;;6.60;99.90;;;;;;5113694;27;20195;-66
2023/12/31 09:12:21;;;;;;;5.87;4.17;;;6.50;99.90;;;;;;5129756;27;20311;-66
2023/12/31 09:14:48;;;;;;;6.10;4.17;;;6.50;99.90;;;;;;5112840;28;20187;-64
2023/12/31 09:17:15;;;;;;;4.77;4.13;;;6.50;99.90;;;;;;5122470;27;20195;-65
2023/12/31 09:19:43;;;;;;;7.47;4.57;;;6.50;99.90;;;;;;5112040;27;20720;-66
2023/12/31 09:22:10;;;;;;;6.23;4.33;;;6.50;99.90;;;;;;5113289;28;20264;-65
2023/12/31 09:24:38;;;;;;;6.03;4.00;;;6.50;99.90;;;;;;5107122;28;20200;-65
2023/12/31 09:27:07;;;;;;;6.47;4.00;;;6.50;99.90;;;;;;5112179;28;20195;-66
2023/12/31 09:29:35;;;;;;;6.03;3.87;;;6.50;99.90;;;;;;5112202;28;20207;-65
2023/12/31 09:32:02;;;;;;;7.67;4.23;;;6.60;99.90;;;;;;5113370;28;20220;-65
2023/12/31 09:34:31;;;;;;;4.80;3.97;;;6.50;99.90;;;;;;5110503;28;20690;-66
2023/12/31 09:36:59;;;;;;;4.10;3.60;;;6.50;99.90;;;;;;5109752;27;20747;-65
2023/12/31 09:39:26;;;;;;;4.27;3.70;;;6.50;99.90;;;;;;5122347;27;20195;-65
2023/12/31 09:41:54;;;;;;;5.07;3.93;;;6.50;99.90;;;;;;5110103;28;20619;-65
2023/12/31 09:44:21;;;;;;;5.40;4.10;;;6.50;99.90;;;;;;5112459;28;20203;-65
2023/12/31 09:47:03;;;;;;;5.43;3.80;;;6.50;99.90;;;;;;5114320;27;20299;-65
2023/12/31 09:49:31;;;;;;;5.07;3.83;;;6.50;99.90;;;;;;5111571;28;20199;-66
2023/12/31 09:52:03;;;;;;;6.20;3.90;;;6.50;99.90;;;;;;5113171;28;20203;-66
2023/12/31 09:54:31;;;;;;;4.87;3.50;;;6.40;99.90;;;;;;5109849;28;20197;-66
2023/12/31 09:56:59;;;;;;;7.33;4.37;;;6.40;99.90;;;;;;5112660;28;20272;-66
2023/12/31 09:59:27;;;;;;;14.07;7.13;;;6.40;99.90;;;;;;5109923;28;20203;-66
2023/12/31 10:01:57;;;;;;;13.20;7.37;;;6.40;99.90;;;;;;5112558;28;20217;-65
2023/12/31 10:04:24;;;;;;;13.93;6.70;;;6.40;99.90;;;;;;5110064;28;20698;-66
2023/12/31 10:06:52;;;;;;;12.40;6.03;;;6.40;99.90;;;;;;5109574;28;20294;-66
2023/12/31 10:09:23;;;;;;;7.93;5.40;;;6.40;99.90;;;;;;5121890;27;20192;-67
2023/12/31 10:11:50;;;;;;;7.23;5.10;;;6.40;99.90;;;;;;5112254;28;20199;-66
2023/12/31 10:14:17;;;;;;;5.90;4.50;;;6.30;99.90;;;;;;5115158;27;20226;-66
2023/12/31 10:16:44;;;;;;;7.87;5.00;;;6.30;99.90;;;;;;5112300;28;20223;-67
2023/12/31 10:19:12;;;;;;;8.37;5.03;;;6.30;99.90;;;;;;5120115;27;20206;-66
2023/12/31 10:21:39;;;;;;;13.50;7.83;;;6.30;99.90;;;;;;5110038;28;20540;-66
2023/12/31 10:24:06;;;;;;;14.67;8.03;;;6.20;99.90;;;;;;5110790;28;20228;-66
2023/12/31 10:26:35;;;;;;;16.23;7.90;;;6.20;99.90;;;;;;5117294;27;20201;-66
2023/12/31 10:29:04;;;;;;;12.80;7.73;;;6.20;99.90;;;;;;5109671;27;20652;-66
2023/12/31 10:31:32;;;;;;;17.73;9.23;;;6.20;99.90;;;;;;5107272;28;20247;-66
2023/12/31 10:34:14;;;;;;;13.93;8.30;;;6.10;99.90;;;;;;5113299;27;20274;-66
2023/12/31 10:36:41;;;;;;;19.37;9.77;;;6.10;99.90;;;;;;5101183;28;20196;-66
2023/12/31 10:39:09;;;;;;;14.53;7.60;;;6.00;99.90;;;;;;5108013;27;20662;-66
2023/12/31 10:41:37;;;;;;;16.60;8.63;;;6.00;99.90;;;;;;5110124;28;20230;-66
2023/12/31 10:44:11;;;;;;;13.10;7.50;;;6.00;99.90;;;;;;5106481;27;20334;-66
2023/12/31 10:46:42;;;;;;;14.83;8.00;;;5.90;99.90;;;;;;5110844;27;20198;-67
2023/12/31 10:49:12;;;;;;;15.37;8.50;;;5.90;99.90;;;;;;5108048;27;20277;-66
2023/12/31 10:51:42;;;;;;;16.03;8.33;;;6.00;99.90;;;;;;5111292;28;20251;-66
2023/12/31 10:54:13;;;;;;;11.67;6.80;;;5.90;99.90;;;;;;5103218;28;20209;-66
2023/12/31 10:56:42;;;;;;;7.70;5.20;;;5.90;99.90;;;;;;5108934;28;20201;-66
2023/12/31 10:59:12;;;;;;;7.77;5.13;;;6.00;99.90;;;;;;5082256;28;20186;-67
2023/12/31 11:01:41;;;;;;;15.00;8.40;;;6.00;99.90;;;;;;5102168;28;20212;-66
2023/12/31 11:04:10;;;;;;;15.00;8.37;;;6.00;99.90;;;;;;5107426;28;20563;-64
2023/12/31 11:06:39;;;;;;;20.47;8.53;;;6.00;99.90;;;;;;5103947;28;20200;-65
2023/12/31 11:09:09;;;;;;;15.83;8.73;;;6.00;99.90;;;;;;5107869;28;20213;-65
2023/12/31 11:11:37;;;;;;;14.57;7.23;;;6.00;99.90;;;;;;5109770;28;20198;-67
2023/12/31 11:14:06;;;;;;;16.30;8.30;;;6.00;99.90;;;;;;5108988;28;20351;-66
2023/12/31 11:16:47;;;;;;;15.87;7.70;;;6.10;99.90;;;;;;5109588;28;20614;-65
2023/12/31 11:19:35;;;;;;;12.93;7.13;;;6.10;99.90;;;;;;5120232;27;20675;-66
2023/12/31 11:22:13;;;;;;;19.60;9.80;;;6.10;99.90;;;;;;5110223;27;20215;-64
2023/12/31 11:24:41;;;;;;;17.60;8.83;;;6.10;99.90;;;;;;5109197;27;20688;-67
2023/12/31 11:27:15;;;;;;;15.07;7.97;;;6.10;99.90;;;;;;5109459;28;20198;-66
2023/12/31 11:29:46;;;;;;;17.57;8.30;;;6.00;99.90;;;;;;5110765;28;20269;-66
2023/12/31 11:32:17;;;;;;;14.17;8.50;;;6.00;99.90;;;;;;5104115;28;20246;-66
2023/12/31 11:34:44;;;;;;;16.67;8.43;;;6.10;99.90;;;;;;5108970;27;20641;-66
2023/12/31 11:37:11;;;;;;;11.97;7.23;;;6.10;99.90;;;;;;5105204;27;20204;-66
2023/12/31 11:39:38;;;;;;;15.37;8.67;;;6.00;99.90;;;;;;5108497;28;20194;-66
2023/12/31 11:42:10;;;;;;;15.83;8.93;;;6.00;99.90;;;;;;5106453;28;20262;-66
2023/12/31 11:44:38;;;;;;;13.57;7.17;;;6.00;99.90;;;;;;5110788;28;20186;-67
2023/12/31 11:47:12;;;;;;;13.63;7.63;;;6.00;99.90;;;;;;5110127;28;20197;-67
2023/12/31 11:49:46;;;;;;;13.93;8.00;;;6.00;99.90;;;;;;5108032;28;20375;-66
2023/12/31 11:52:13;;;;;;;13.33;6.17;;;6.00;99.90;;;;;;5112744;28;20194;-67
2023/12/31 11:54:41;;;;;;;9.90;6.47;;;6.00;99.90;;;;;;5107410;28;20271;-66
2023/12/31 11:57:10;;;;;;;9.80;5.37;;;5.90;99.90;;;;;;5105125;28;20643;-67
2023/12/31 11:59:38;;;;;;;9.33;6.07;;;5.90;99.90;;;;;;5104502;28;20277;-67
2023/12/31 12:02:07;;;;;;;11.03;5.87;;;5.90;99.90;;;;;;5112733;28;20199;-67
2023/12/31 12:04:35;;;;;;;9.47;6.17;;;5.90;99.90;;;;;;5105771;28;20194;-67
2023/12/31 12:07:03;;;;;;;11.83;6.93;;;5.90;99.90;;;;;;5120654;27;20198;-67
2023/12/31 12:09:32;;;;;;;13.47;8.63;;;6.00;99.90;;;;;;5109967;28;20218;-70
2023/12/31 12:12:00;;;;;;;14.00;8.43;;;6.00;99.90;;;;;;5105781;28;20600;-66
2023/12/31 12:14:27;;;;;;;11.07;7.13;;;6.00;99.90;;;;;;5107414;28;20324;-67
2023/12/31 12:16:55;;;;;;;13.73;8.00;;;5.90;99.90;;;;;;5121285;28;20224;-66
2023/12/31 12:19:24;;;;;;;16.70;8.73;;;5.90;99.90;;;;;;5104565;28;20284;-67
2023/12/31 12:21:52;;;;;;;14.63;8.10;;;5.90;99.90;;;;;;5110464;27;20208;-66
2023/12/31 12:24:23;;;;;;;15.73;8.27;;;5.90;99.90;;;;;;5114309;27;20304;-67
2023/12/31 12:26:59;;;;;;;22.20;10.33;;;6.00;99.90;;;;;;5116327;27;20201;-66
2023/12/31 12:29:28;;;;;;;23.83;12.70;;;6.00;99.90;;;;;;5111526;27;20239;-67
2023/12/31 12:31:56;;;;;;;23.80;11.30;;;6.00;99.90;;;;;;5113374;27;20210;-66
2023/12/31 12:34:27;;;;;;;23.57;11.53;;;5.90;99.90;;;;;;5114353;27;20196;-66
2023/12/31 12:36:57;;;;;;;19.87;10.53;;;5.90;99.90;;;;;;5114890;27;20206;-67
2023/12/31 12:39:24;;;;;;;19.73;9.47;;;5.90;99.90;;;;;;5112234;27;20202;-67
2023/12/31 12:41:52;;;;;;;16.10;8.70;;;5.80;99.90;;;;;;5112705;27;20227;-65
2023/12/31 12:44:20;;;;;;;15.63;8.00;;;5.80;99.90;;;;;;5118343;27;20209;-67
2023/12/31 12:46:53;;;;;;;14.43;8.40;;;5.80;99.90;;;;;;5115939;27;20229;-66
2023/12/31 12:49:20;;;;;;;18.27;9.23;;;5.80;99.90;;;;;;5125701;27;20195;-66
2023/12/31 12:51:49;;;;;;;16.93;8.90;;;5.90;99.90;;;;;;5120378;27;20278;-66
2023/12/31 12:54:16;;;;;;;22.67;11.00;;;5.90;99.90;;;;;;5105605;28;20259;-66
2023/12/31 12:56:44;;;;;;;21.07;11.10;;;5.90;99.90;;;;;;5108589;28;20202;-66
2023/12/31 12:59:11;;;;;;;18.87;8.83;;;5.80;99.90;;;;;;5107308;27;20204;-67